Time;durP1;ratioP1;P1;durP2;ratioP2;P2;SDS_P1;SDS_P2;PMS_P1;PMS_P2;Temp;Humidity;BMP_temperature;BMP_pressure;BME280_temperature;BME280_humidity;BME280_pressure;Samples;Min_cycle;Max_cycle;Signal;HPM_P1;HPM_P2
2020/12/15 00:01:05;;;;;;;18.80;17.43;;;;;;;;;;4973990;28;20182;-88
2020/12/15 00:03:31;;;;;;;18.40;17.30;;;;;;;;;;4973548;28;20220;-88
2020/12/15 00:06:00;;;;;;;18.47;17.17;;;;;;;;;;4974818;28;20198;-88
2020/12/15 00:08:33;;;;;;;18.97;17.37;;;;;;;;;;4973547;28;20191;-88
2020/12/15 00:11:04;;;;;;;18.87;17.43;;;;;;;;;;4973339;28;20186;-88
2020/12/15 00:13:38;;;;;;;18.50;16.90;;;;;;;;;;4973747;28;20190;-88
2020/12/15 00:16:05;;;;;;;18.20;16.90;;;;;;;;;;4974536;28;20220;-88
2020/12/15 00:18:35;;;;;;;17.50;16.30;;;;;;;;;;4973493;28;20186;-88
2020/12/15 00:21:05;;;;;;;17.23;15.67;;;;;;;;;;4974511;28;20178;-88
2020/12/15 00:23:35;;;;;;;16.53;15.33;;;;;;;;;;4973224;28;20190;-88
2020/12/15 00:26:07;;;;;;;17.00;15.90;;;;;;;;;;4973330;28;20206;-88
2020/12/15 00:28:35;;;;;;;17.70;16.50;;;;;;;;;;4974546;28;20671;-88
2020/12/15 00:31:02;;;;;;;16.37;15.27;;;;;;;;;;4973106;28;20643;-88
2020/12/15 00:33:34;;;;;;;17.33;16.03;;;;;;;;;;4974432;28;20526;-88
2020/12/15 00:36:05;;;;;;;18.17;16.87;;;;;;;;;;4972912;28;20762;-88
2020/12/15 00:38:40;;;;;;;17.13;16.00;;;;;;;;;;4973084;28;20583;-88
2020/12/15 00:41:13;;;;;;;16.57;15.43;;;;;;;;;;4973053;28;20218;-88
2020/12/15 00:43:44;;;;;;;16.33;15.23;;;;;;;;;;4973132;28;20178;-88
2020/12/15 00:46:17;;;;;;;16.50;15.47;;;;;;;;;;4973221;28;20714;-88
2020/12/15 00:48:50;;;;;;;17.50;16.37;;;;;;;;;;4974849;28;20194;-88
2020/12/15 00:51:28;;;;;;;18.43;17.13;;;;;;;;;;4972942;28;20651;-88
2020/12/15 00:54:03;;;;;;;18.83;17.27;;;;;;;;;;4974443;28;20222;-88
2020/12/15 00:56:34;;;;;;;17.20;15.90;;;;;;;;;;4972772;28;20220;-88
2020/12/15 00:59:09;;;;;;;18.07;16.67;;;;;;;;;;4972917;28;20210;-88
2020/12/15 01:01:39;;;;;;;18.60;17.27;;;;;;;;;;4973607;28;20182;-88
2020/12/15 01:04:13;;;;;;;20.03;18.40;;;;;;;;;;4973058;28;20183;-88
2020/12/15 01:06:44;;;;;;;19.43;17.73;;;;;;;;;;4973999;28;20202;-88
2020/12/15 01:09:13;;;;;;;19.07;17.67;;;;;;;;;;4974016;28;20564;-88
2020/12/15 01:11:47;;;;;;;20.10;18.57;;;;;;;;;;4973965;28;20261;-88
2020/12/15 01:14:19;;;;;;;19.80;18.53;;;;;;;;;;4972764;28;20186;-88
2020/12/15 01:16:50;;;;;;;19.40;18.13;;;;;;;;;;4974546;28;20223;-88
2020/12/15 01:19:19;;;;;;;18.60;17.40;;;;;;;;;;4973605;28;20175;-88
2020/12/15 01:21:50;;;;;;;18.30;17.00;;;;;;;;;;4972638;28;20175;-88
2020/12/15 01:24:25;;;;;;;18.20;16.90;;;;;;;;;;4972700;28;20179;-88
2020/12/15 01:26:57;;;;;;;18.03;16.73;;;;;;;;;;4974165;28;20170;-88
2020/12/15 01:29:28;;;;;;;17.70;16.50;;;;;;;;;;4972780;28;20190;-88
2020/12/15 01:32:04;;;;;;;17.70;16.60;;;;;;;;;;4973058;28;20555;-88
2020/12/15 01:34:31;;;;;;;18.30;17.10;;;;;;;;;;4975138;28;20574;-88
2020/12/15 01:37:05;;;;;;;19.40;18.10;;;;;;;;;;4976271;28;20294;-88
2020/12/15 01:39:33;;;;;;;20.23;18.93;;;;;;;;;;4976210;28;20174;-88
2020/12/15 01:41:59;;;;;;;19.23;18.03;;;;;;;;;;4976170;28;20233;-88
2020/12/15 01:44:31;;;;;;;19.67;18.47;;;;;;;;;;4976067;28;20608;-88
2020/12/15 01:47:00;;;;;;;19.63;18.33;;;;;;;;;;4977574;28;20517;-88
2020/12/15 01:49:32;;;;;;;17.90;16.70;;;;;;;;;;4977363;28;20190;-88
2020/12/15 01:52:04;;;;;;;18.93;17.60;;;;;;;;;;4975954;28;20614;-88
2020/12/15 01:54:30;;;;;;;19.33;17.83;;;;;;;;;;4975785;28;20187;-88
2020/12/15 01:57:04;;;;;;;19.83;18.57;;;;;;;;;;4975777;28;20202;-88
2020/12/15 01:59:40;;;;;;;18.37;17.07;;;;;;;;;;4976983;28;20647;-88
2020/12/15 02:02:13;;;;;;;18.73;17.53;;;;;;;;;;4975742;28;20221;-88
2020/12/15 02:04:46;;;;;;;20.97;19.57;;;;;;;;;;4976902;28;20174;-88
2020/12/15 02:07:16;;;;;;;19.37;18.07;;;;;;;;;;4975590;28;20187;-88
2020/12/15 02:09:47;;;;;;;18.27;16.97;;;;;;;;;;4976896;28;20175;-88
2020/12/15 02:12:18;;;;;;;18.60;17.40;;;;;;;;;;4975463;28;20190;-88
2020/12/15 02:14:45;;;;;;;19.90;18.30;;;;;;;;;;4975428;28;20245;-88
2020/12/15 02:17:13;;;;;;;20.80;19.40;;;;;;;;;;4975793;28;20234;-88
2020/12/15 02:19:40;;;;;;;18.50;17.30;;;;;;;;;;4975725;28;20174;-88
2020/12/15 02:22:13;;;;;;;18.37;17.00;;;;;;;;;;4976787;28;20203;-88
2020/12/15 02:24:43;;;;;;;19.70;18.23;;;;;;;;;;4975445;28;20175;-88
2020/12/15 02:27:17;;;;;;;18.37;17.17;;;;;;;;;;4975205;28;20186;-88
2020/12/15 02:29:51;;;;;;;17.73;16.53;;;;;;;;;;4975334;28;20206;-88
2020/12/15 02:32:24;;;;;;;19.10;17.70;;;;;;;;;;4976396;28;20181;-88
2020/12/15 02:34:57;;;;;;;18.67;17.30;;;;;;;;;;4975003;28;20199;-88
2020/12/15 02:37:27;;;;;;;18.00;16.80;;;;;;;;;;4975053;28;20293;-88
2020/12/15 02:40:04;;;;;;;17.50;16.20;;;;;;;;;;4975117;28;20526;-88
2020/12/15 02:42:31;;;;;;;17.13;15.83;;;;;;;;;;4975143;28;20269;-88
2020/12/15 02:45:04;;;;;;;17.60;16.30;;;;;;;;;;4975681;28;20286;-88
2020/12/15 02:47:38;;;;;;;18.43;16.93;;;;;;;;;;4974482;28;20182;-88
2020/12/15 02:50:10;;;;;;;16.13;15.03;;;;;;;;;;4974872;28;20185;-88
2020/12/15 02:52:43;;;;;;;15.83;14.80;;;;;;;;;;4976166;28;20532;-88
2020/12/15 02:55:20;;;;;;;15.93;14.63;;;;;;;;;;4975895;28;20209;-88
2020/12/15 02:57:54;;;;;;;15.67;14.67;;;;;;;;;;4974620;28;20678;-88
2020/12/15 03:00:25;;;;;;;16.00;14.87;;;;;;;;;;4974963;28;20595;-88
2020/12/15 03:02:56;;;;;;;16.67;15.43;;;;;;;;;;4974582;28;20206;-88
2020/12/15 03:05:26;;;;;;;17.33;16.00;;;;;;;;;;4974849;28;20258;-88
2020/12/15 03:07:58;;;;;;;17.80;16.50;;;;;;;;;;4975978;28;20190;-88
2020/12/15 03:10:30;;;;;;;17.43;16.00;;;;;;;;;;4974468;28;20193;-88
2020/12/15 03:13:05;;;;;;;16.47;15.37;;;;;;;;;;4976040;28;20191;-88
2020/12/15 03:15:39;;;;;;;16.93;15.60;;;;;;;;;;4974296;28;20214;-88
2020/12/15 03:18:10;;;;;;;18.33;17.03;;;;;;;;;;4974862;28;20206;-88
2020/12/15 03:20:46;;;;;;;17.53;16.33;;;;;;;;;;4974290;28;20175;-88
2020/12/15 03:23:13;;;;;;;18.00;16.60;;;;;;;;;;4974301;28;20178;-88
2020/12/15 03:25:39;;;;;;;18.80;17.50;;;;;;;;;;4974417;28;20308;-88
2020/12/15 03:28:11;;;;;;;20.47;18.73;;;;;;;;;;4974164;28;20662;-88
2020/12/15 03:30:40;;;;;;;19.43;17.97;;;;;;;;;;4975650;28;20171;-88
2020/12/15 03:33:13;;;;;;;19.60;18.40;;;;;;;;;;4974142;28;20213;-88
2020/12/15 03:35:46;;;;;;;19.30;18.00;;;;;;;;;;4973915;28;20254;-88
2020/12/15 03:38:13;;;;;;;21.50;19.80;;;;;;;;;;4973914;28;20190;-88
2020/12/15 03:40:43;;;;;;;20.13;18.40;;;;;;;;;;4973854;28;20179;-88
2020/12/15 03:43:14;;;;;;;19.97;18.57;;;;;;;;;;4975122;28;20178;-88
2020/12/15 03:45:47;;;;;;;19.87;18.57;;;;;;;;;;4973804;28;20281;-88
2020/12/15 03:48:20;;;;;;;20.67;19.30;;;;;;;;;;4975335;28;20639;-88
2020/12/15 03:50:55;;;;;;;20.80;19.30;;;;;;;;;;4975265;28;20179;-88
2020/12/15 03:53:30;;;;;;;19.43;17.97;;;;;;;;;;4975064;28;20637;-88
2020/12/15 03:56:05;;;;;;;19.87;18.57;;;;;;;;;;4973994;28;20620;-88
2020/12/15 03:58:38;;;;;;;20.80;19.20;;;;;;;;;;4973631;28;20652;-88
2020/12/15 04:01:12;;;;;;;20.10;18.67;;;;;;;;;;4975173;28;20182;-88
2020/12/15 04:03:43;;;;;;;19.60;18.27;;;;;;;;;;4973700;28;20167;-88
2020/12/15 04:06:10;;;;;;;20.43;19.03;;;;;;;;;;4973380;28;20202;-88
2020/12/15 04:08:37;;;;;;;21.13;19.57;;;;;;;;;;4973806;28;20182;-88
2020/12/15 04:11:09;;;;;;;20.80;19.50;;;;;;;;;;4973613;28;20186;-88
2020/12/15 04:13:39;;;;;;;20.63;19.17;;;;;;;;;;4974664;28;20616;-88
2020/12/15 04:16:11;;;;;;;20.50;19.20;;;;;;;;;;4973123;28;20241;-88
2020/12/15 04:18:40;;;;;;;20.90;19.50;;;;;;;;;;4973615;28;20183;-88
2020/12/15 04:21:11;;;;;;;20.57;19.10;;;;;;;;;;4973253;28;20175;-88
2020/12/15 04:23:41;;;;;;;20.57;19.27;;;;;;;;;;4973591;28;20321;-88
2020/12/15 04:26:11;;;;;;;20.83;19.53;;;;;;;;;;4974331;28;20288;-88
2020/12/15 04:28:43;;;;;;;19.63;18.23;;;;;;;;;;4973285;28;20322;-88
2020/12/15 04:31:17;;;;;;;21.70;20.20;;;;;;;;;;4973532;28;20526;-88
2020/12/15 04:33:50;;;;;;;20.80;19.40;;;;;;;;;;4973251;28;20187;-88
2020/12/15 04:36:22;;;;;;;20.13;18.73;;;;;;;;;;4973018;28;20217;-88
2020/12/15 04:38:54;;;;;;;20.93;19.30;;;;;;;;;;4973179;28;20261;-88
2020/12/15 04:41:31;;;;;;;20.50;19.20;;;;;;;;;;4974423;28;20175;-88
2020/12/15 04:44:03;;;;;;;20.07;18.67;;;;;;;;;;4974203;28;20185;-88
2020/12/15 04:46:36;;;;;;;18.83;17.53;;;;;;;;;;4974121;28;20199;-88
2020/12/15 04:49:08;;;;;;;18.47;17.03;;;;;;;;;;4973327;28;20179;-88
2020/12/15 04:51:58;;;;;;;18.80;17.40;;;;;;;;;;4974301;28;20194;-88
2020/12/15 04:54:37;;;;;;;20.50;19.20;;;;;;;;;;4973032;28;20174;-88
2020/12/15 04:57:06;;;;;;;21.60;20.10;;;;;;;;;;4974477;28;20193;-88
2020/12/15 04:59:35;;;;;;;20.70;19.10;;;;;;;;;;4974158;28;20170;-88
2020/12/15 05:02:06;;;;;;;19.97;18.57;;;;;;;;;;4974109;28;20178;-88
2020/12/15 05:04:39;;;;;;;20.03;18.63;;;;;;;;;;4973167;28;20711;-88
2020/12/15 05:07:11;;;;;;;21.03;19.60;;;;;;;;;;4974409;28;20170;-88
2020/12/15 05:09:38;;;;;;;21.00;19.40;;;;;;;;;;4975381;28;20267;-88
2020/12/15 05:12:10;;;;;;;22.23;20.63;;;;;;;;;;4976789;28;20245;-88
2020/12/15 05:14:56;;;;;;;21.00;19.50;;;;;;;;;;4976813;28;20186;-88
2020/12/15 05:17:28;;;;;;;20.40;19.07;;;;;;;;;;4976528;28;20207;-88
2020/12/15 05:20:01;;;;;;;19.10;17.90;;;;;;;;;;4978094;28;20171;-88
2020/12/15 05:22:48;;;;;;;20.47;19.17;;;;;;;;;;4977813;28;20208;-88
2020/12/15 05:25:35;;;;;;;20.23;18.83;;;;;;;;;;4977873;28;20670;-88
2020/12/15 05:28:13;;;;;;;18.17;16.80;;;;;;;;;;4978231;28;20662;-88
2020/12/15 05:30:43;;;;;;;19.07;17.77;;;;;;;;;;4977870;28;20201;-88
2020/12/15 05:33:21;;;;;;;19.63;18.10;;;;;;;;;;4976353;28;20623;-88
2020/12/15 05:35:55;;;;;;;18.63;17.43;;;;;;;;;;4976121;28;20206;-88
2020/12/15 05:38:26;;;;;;;20.07;18.50;;;;;;;;;;4976448;28;20177;-88
2020/12/15 05:40:56;;;;;;;19.73;18.33;;;;;;;;;;4977397;28;20262;-88
2020/12/15 05:43:28;;;;;;;20.40;18.67;;;;;;;;;;4977552;28;20671;-88
2020/12/15 05:45:57;;;;;;;19.80;18.30;;;;;;;;;;4976106;28;20201;-87
2020/12/15 05:48:29;;;;;;;19.93;18.63;;;;;;;;;;4976150;28;20187;-87
2020/12/15 05:50:59;;;;;;;19.77;18.17;;;;;;;;;;4975999;28;20210;-88
2020/12/15 05:53:31;;;;;;;20.70;19.30;;;;;;;;;;4976355;28;20179;-88
2020/12/15 05:56:04;;;;;;;21.00;19.50;;;;;;;;;;4975778;28;20213;-88
2020/12/15 05:58:35;;;;;;;20.93;19.43;;;;;;;;;;4975800;28;20646;-88
2020/12/15 06:01:11;;;;;;;21.30;19.70;;;;;;;;;;4975807;28;20186;-88
2020/12/15 06:03:43;;;;;;;21.33;19.63;;;;;;;;;;4976138;28;20175;-88
2020/12/15 06:06:16;;;;;;;21.33;19.90;;;;;;;;;;4976881;28;20203;-88
2020/12/15 06:08:51;;;;;;;21.30;19.90;;;;;;;;;;4976825;28;20187;-88
2020/12/15 06:11:20;;;;;;;21.83;20.33;;;;;;;;;;4977403;28;20170;-88
2020/12/15 06:13:50;;;;;;;20.83;19.53;;;;;;;;;;4975821;28;20257;-88
2020/12/15 06:16:19;;;;;;;21.17;19.67;;;;;;;;;;4975601;28;20225;-88
2020/12/15 06:18:53;;;;;;;19.17;17.97;;;;;;;;;;4976969;28;20257;-88
2020/12/15 06:21:20;;;;;;;20.70;19.30;;;;;;;;;;4975220;28;20186;-88
2020/12/15 06:24:00;;;;;;;21.47;20.07;;;;;;;;;;4975486;28;20650;-88
2020/12/15 06:26:34;;;;;;;22.43;20.93;;;;;;;;;;4975241;28;20205;-88
2020/12/15 06:29:08;;;;;;;21.27;19.73;;;;;;;;;;4976645;28;20535;-88
2020/12/15 06:31:40;;;;;;;20.57;19.17;;;;;;;;;;4976868;28;20245;-88
2020/12/15 06:34:06;;;;;;;20.50;19.10;;;;;;;;;;4975339;28;20190;-88
2020/12/15 06:36:35;;;;;;;19.57;18.23;;;;;;;;;;4975049;28;20214;-88
2020/12/15 06:39:02;;;;;;;19.13;17.83;;;;;;;;;;4975142;28;20269;-88
2020/12/15 06:41:31;;;;;;;20.20;18.73;;;;;;;;;;4975432;28;20647;-88
2020/12/15 06:44:09;;;;;;;19.10;17.70;;;;;;;;;;4974932;28;20639;-88
2020/12/15 06:46:36;;;;;;;19.30;17.90;;;;;;;;;;4976216;28;20205;-88
2020/12/15 06:49:10;;;;;;;19.03;17.63;;;;;;;;;;4974936;28;20221;-88
2020/12/15 06:51:41;;;;;;;18.83;17.33;;;;;;;;;;4976070;28;20239;-88
2020/12/15 06:54:13;;;;;;;17.97;16.47;;;;;;;;;;4974870;28;20205;-88
2020/12/15 06:56:47;;;;;;;19.57;17.70;;;;;;;;;;4974715;28;20225;-88
2020/12/15 06:59:17;;;;;;;18.43;17.13;;;;;;;;;;4974863;28;20190;-88
2020/12/15 07:01:43;;;;;;;18.60;17.30;;;;;;;;;;4976382;28;20174;-88
2020/12/15 07:04:25;;;;;;;17.93;16.57;;;;;;;;;;4976304;28;20271;-88
2020/12/15 07:06:59;;;;;;;19.23;17.73;;;;;;;;;;4974561;28;20183;-88
2020/12/15 07:09:29;;;;;;;19.00;17.50;;;;;;;;;;4974571;28;20182;-87
2020/12/15 07:12:00;;;;;;;18.50;17.17;;;;;;;;;;4975910;28;20558;-87
2020/12/15 07:14:31;;;;;;;19.70;18.00;;;;;;;;;;4975732;28;20213;-88
2020/12/15 07:16:58;;;;;;;19.30;17.80;;;;;;;;;;5072729;23;20236;-84
2020/12/15 07:19:28;;;;;;;18.43;16.93;;;;;;;;;;4994329;28;20235;-85
2020/12/15 07:21:59;;;;;;;18.77;17.43;;;;;;;;;;4994050;28;20188;-84
2020/12/15 07:24:31;;;;;;;18.80;17.10;;;;;;;;;;4993823;28;20181;-84
2020/12/15 07:27:04;;;;;;;18.27;16.77;;;;;;;;;;4993989;28;20201;-84
2020/12/15 07:29:40;;;;;;;18.67;17.27;;;;;;;;;;4993929;28;20563;-84
2020/12/15 07:32:20;;;;;;;19.80;18.13;;;;;;;;;;4995146;28;20177;-84
2020/12/15 07:34:55;;;;;;;19.83;18.33;;;;;;;;;;4994152;28;20733;-84
2020/12/15 07:37:25;;;;;;;18.83;17.43;;;;;;;;;;4993935;28;20220;-84
2020/12/15 07:40:04;;;;;;;19.20;17.70;;;;;;;;;;4994459;28;20184;-84
2020/12/15 07:42:39;;;;;;;19.07;17.17;;;;;;;;;;4994259;28;20650;-84
2020/12/15 07:45:13;;;;;;;18.60;16.90;;;;;;;;;;4993998;28;20187;-84
2020/12/15 07:47:46;;;;;;;18.00;16.57;;;;;;;;;;4993984;28;20563;-84
2020/12/15 07:50:17;;;;;;;17.47;16.10;;;;;;;;;;4994766;28;20580;-84
2020/12/15 07:52:49;;;;;;;17.50;16.17;;;;;;;;;;4993892;28;20178;-84
2020/12/15 07:55:21;;;;;;;19.07;17.47;;;;;;;;;;4993738;28;20200;-84
2020/12/15 07:57:52;;;;;;;18.87;17.37;;;;;;;;;;4994782;28;20204;-84
2020/12/15 08:00:24;;;;;;;18.73;16.97;;;;;;;;;;4995323;28;20177;-84
2020/12/15 08:03:04;;;;;;;18.43;17.03;;;;;;;;;;4993715;28;20641;-84
2020/12/15 08:05:35;;;;;;;18.37;16.77;;;;;;;;;;4995175;28;20184;-83
2020/12/15 08:08:09;;;;;;;16.97;15.60;;;;;;;;;;4995431;28;20617;-84
2020/12/15 08:10:41;;;;;;;19.03;17.43;;;;;;;;;;4994212;28;20541;-84
2020/12/15 08:13:11;;;;;;;18.73;17.23;;;;;;;;;;4994679;28;20657;-84
2020/12/15 08:15:47;;;;;;;17.93;16.33;;;;;;;;;;4993912;28;20572;-84
2020/12/15 08:18:20;;;;;;;18.50;17.03;;;;;;;;;;4993485;28;20193;-84
2020/12/15 08:20:53;;;;;;;18.27;16.57;;;;;;;;;;4993123;28;20177;-83
2020/12/15 08:23:27;;;;;;;18.93;17.33;;;;;;;;;;4993313;28;20181;-83
2020/12/15 08:26:00;;;;;;;17.80;16.30;;;;;;;;;;4994577;28;20174;-83
2020/12/15 08:28:26;;;;;;;18.53;17.00;;;;;;;;;;4994499;28;20257;-83
2020/12/15 08:30:56;;;;;;;19.60;17.93;;;;;;;;;;4994665;28;20201;-83
2020/12/15 08:33:26;;;;;;;17.90;16.40;;;;;;;;;;4993314;28;20182;-83
2020/12/15 08:35:56;;;;;;;18.90;17.30;;;;;;;;;;4994445;28;20169;-84
2020/12/15 08:38:25;;;;;;;19.40;17.70;;;;;;;;;;4992877;28;20551;-84
2020/12/15 08:40:59;;;;;;;17.70;16.30;;;;;;;;;;4994323;28;20174;-84
2020/12/15 08:43:26;;;;;;;18.97;17.17;;;;;;;;;;4992360;28;20563;-83
2020/12/15 08:45:59;;;;;;;18.13;16.60;;;;;;;;;;4992310;28;20205;-84
2020/12/15 08:48:31;;;;;;;19.23;17.63;;;;;;;;;;4994396;28;20192;-84
2020/12/15 08:51:12;;;;;;;18.37;16.77;;;;;;;;;;4994014;28;20181;-84
2020/12/15 08:53:39;;;;;;;18.10;16.50;;;;;;;;;;4994117;28;20178;-84
2020/12/15 08:56:17;;;;;;;18.90;17.30;;;;;;;;;;4995357;28;20571;-84
2020/12/15 08:58:47;;;;;;;16.97;15.53;;;;;;;;;;4996078;28;20174;-84
2020/12/15 09:01:16;;;;;;;18.27;16.80;;;;;;;;;;4995272;28;20174;-84
2020/12/15 09:03:45;;;;;;;18.77;17.27;;;;;;;;;;4994554;28;20224;-84
2020/12/15 09:06:17;;;;;;;18.17;16.77;;;;;;;;;;4994611;28;20205;-84
2020/12/15 09:08:51;;;;;;;18.37;16.73;;;;;;;;;;4993880;28;20701;-84
2020/12/15 09:11:25;;;;;;;19.07;17.37;;;;;;;;;;4994044;28;20232;-85
2020/12/15 09:13:58;;;;;;;19.03;17.43;;;;;;;;;;4993784;28;20174;-84
2020/12/15 09:16:41;;;;;;;17.17;15.57;;;;;;;;;;4992477;28;20585;-84
2020/12/15 09:19:13;;;;;;;18.40;16.90;;;;;;;;;;4994017;28;20201;-85
2020/12/15 09:21:59;;;;;;;18.47;16.90;;;;;;;;;;4992519;28;20170;-84
2020/12/15 09:24:30;;;;;;;18.30;16.70;;;;;;;;;;4994005;28;20177;-84
2020/12/15 09:26:57;;;;;;;18.80;17.30;;;;;;;;;;4993707;28;20201;-84
2020/12/15 09:29:28;;;;;;;18.60;17.10;;;;;;;;;;4993786;28;20178;-84
2020/12/15 09:31:55;;;;;;;19.83;18.17;;;;;;;;;;4992566;28;20225;-84
2020/12/15 09:34:23;;;;;;;20.47;18.53;;;;;;;;;;4993941;28;20186;-84
2020/12/15 09:37:01;;;;;;;19.73;17.63;;;;;;;;;;4993809;28;20566;-84
2020/12/15 09:39:29;;;;;;;19.30;17.67;;;;;;;;;;4993991;28;20301;-84
2020/12/15 09:42:04;;;;;;;18.70;17.07;;;;;;;;;;4994166;28;20205;-84
2020/12/15 09:44:30;;;;;;;18.50;16.90;;;;;;;;;;4993121;28;20170;-84
2020/12/15 09:47:01;;;;;;;19.50;17.60;;;;;;;;;;4992736;28;20201;-84
2020/12/15 09:49:34;;;;;;;18.77;16.97;;;;;;;;;;4992753;28;20269;-84
2020/12/15 09:52:07;;;;;;;18.77;17.17;;;;;;;;;;4993266;28;20178;-84
2020/12/15 09:54:34;;;;;;;18.60;16.90;;;;;;;;;;4992920;28;20590;-84
2020/12/15 09:57:05;;;;;;;18.50;16.80;;;;;;;;;;4997347;28;20229;-84
2020/12/15 09:59:32;;;;;;;18.40;16.90;;;;;;;;;;4996988;28;20174;-84
2020/12/15 10:02:00;;;;;;;18.10;16.60;;;;;;;;;;4997442;28;20685;-84
2020/12/15 10:04:30;;;;;;;18.10;16.50;;;;;;;;;;4995840;28;20172;-84
2020/12/15 10:06:59;;;;;;;18.53;17.00;;;;;;;;;;4995804;28;20208;-84
2020/12/15 10:09:30;;;;;;;18.83;17.23;;;;;;;;;;4996946;28;20213;-84
2020/12/15 10:11:57;;;;;;;18.00;16.50;;;;;;;;;;4995778;28;20182;-84
2020/12/15 10:14:30;;;;;;;19.90;17.83;;;;;;;;;;4995660;28;20212;-84
2020/12/15 10:17:00;;;;;;;19.10;17.27;;;;;;;;;;4995209;28;20241;-84
2020/12/15 10:19:29;;;;;;;18.80;17.20;;;;;;;;;;4995552;28;20170;-84
2020/12/15 10:22:01;;;;;;;18.77;17.17;;;;;;;;;;4995436;28;20261;-84
2020/12/15 10:24:32;;;;;;;20.23;18.37;;;;;;;;;;4995593;28;20228;-85
2020/12/15 10:26:58;;;;;;;20.27;18.37;;;;;;;;;;4995397;28;20237;-85
2020/12/15 10:29:34;;;;;;;19.10;17.50;;;;;;;;;;4995122;28;20181;-85
2020/12/15 10:32:10;;;;;;;19.20;17.43;;;;;;;;;;4996859;28;20177;-84
2020/12/15 10:34:42;;;;;;;19.13;17.43;;;;;;;;;;4996363;28;20185;-85
2020/12/15 10:37:13;;;;;;;20.17;18.33;;;;;;;;;;4994898;28;20213;-85
2020/12/15 10:39:41;;;;;;;20.20;18.10;;;;;;;;;;4996491;28;20170;-85
2020/12/15 10:42:13;;;;;;;20.03;18.40;;;;;;;;;;4995164;28;20182;-84
2020/12/15 10:44:47;;;;;;;20.27;18.43;;;;;;;;;;4996724;28;20312;-84
2020/12/15 10:47:16;;;;;;;19.73;17.83;;;;;;;;;;4996239;28;20622;-84
2020/12/15 10:49:47;;;;;;;20.53;18.73;;;;;;;;;;4995186;28;20650;-85
2020/12/15 10:52:20;;;;;;;20.63;18.93;;;;;;;;;;4996398;28;20650;-84
2020/12/15 10:54:55;;;;;;;22.07;20.33;;;;;;;;;;4994610;28;20174;-84
2020/12/15 10:57:28;;;;;;;22.07;20.23;;;;;;;;;;4996251;28;20201;-84
2020/12/15 11:00:01;;;;;;;23.03;21.23;;;;;;;;;;4994904;28;20305;-85
2020/12/15 11:02:33;;;;;;;24.53;22.10;;;;;;;;;;4994982;28;20178;-84
2020/12/15 11:05:03;;;;;;;23.63;21.37;;;;;;;;;;4997387;28;20234;-83
2020/12/15 11:07:33;;;;;;;23.83;21.73;;;;;;;;;;4996086;28;20276;-85
2020/12/15 11:10:04;;;;;;;23.40;21.43;;;;;;;;;;4996317;28;20174;-84
2020/12/15 11:12:31;;;;;;;23.20;21.30;;;;;;;;;;4996360;28;20228;-85
2020/12/15 11:15:00;;;;;;;22.97;21.03;;;;;;;;;;4996864;28;20178;-84
2020/12/15 11:17:31;;;;;;;24.30;21.87;;;;;;;;;;4996492;28;20214;-84
2020/12/15 11:20:00;;;;;;;23.37;21.40;;;;;;;;;;4996970;28;20163;-85
2020/12/15 11:22:26;;;;;;;24.13;21.80;;;;;;;;;;4999719;28;20197;-85
2020/12/15 11:24:53;;;;;;;22.50;20.60;;;;;;;;;;4999889;28;20198;-84
2020/12/15 11:27:21;;;;;;;21.87;19.97;;;;;;;;;;4997024;28;20202;-84
2020/12/15 11:29:49;;;;;;;22.57;20.63;;;;;;;;;;4995116;28;20178;-84
2020/12/15 11:32:15;;;;;;;23.80;21.47;;;;;;;;;;4997142;28;20188;-84
2020/12/15 11:34:44;;;;;;;22.30;20.30;;;;;;;;;;4995310;28;20170;-84
2020/12/15 11:37:13;;;;;;;22.13;20.20;;;;;;;;;;4995702;28;20281;-84
2020/12/15 11:39:42;;;;;;;22.20;20.40;;;;;;;;;;4995187;28;20256;-84
2020/12/15 11:42:10;;;;;;;22.57;20.63;;;;;;;;;;4994935;28;20638;-84
2020/12/15 11:44:39;;;;;;;22.90;21.00;;;;;;;;;;4996460;28;20174;-84
2020/12/15 11:47:11;;;;;;;23.60;21.50;;;;;;;;;;4997601;28;20288;-83
2020/12/15 11:49:40;;;;;;;21.57;19.77;;;;;;;;;;4995351;28;20637;-84
2020/12/15 11:52:13;;;;;;;23.30;21.03;;;;;;;;;;4995581;28;20182;-85
2020/12/15 11:54:46;;;;;;;24.53;22.23;;;;;;;;;;4994051;28;20182;-84
2020/12/15 11:57:19;;;;;;;23.00;21.10;;;;;;;;;;4993467;28;20206;-85
2020/12/15 11:59:50;;;;;;;24.03;21.77;;;;;;;;;;4994496;28;20182;-85
2020/12/15 12:02:17;;;;;;;22.67;20.83;;;;;;;;;;4995261;28;20677;-84
2020/12/15 12:04:47;;;;;;;24.27;22.20;;;;;;;;;;4993728;28;20189;-84
2020/12/15 12:07:18;;;;;;;24.47;22.27;;;;;;;;;;4993465;28;20209;-84
2020/12/15 12:09:49;;;;;;;25.07;22.67;;;;;;;;;;4993577;28;20182;-84
2020/12/15 12:12:22;;;;;;;24.93;22.70;;;;;;;;;;4993394;28;20182;-84
2020/12/15 12:14:55;;;;;;;24.97;22.50;;;;;;;;;;4993514;28;20689;-84
2020/12/15 12:17:26;;;;;;;24.53;22.33;;;;;;;;;;4994574;28;20272;-85
2020/12/15 12:19:58;;;;;;;25.10;22.77;;;;;;;;;;4993078;28;20185;-84
2020/12/15 12:22:31;;;;;;;24.33;22.00;;;;;;;;;;4993166;28;20174;-84
2020/12/15 12:25:04;;;;;;;24.17;22.03;;;;;;;;;;4993234;28;20174;-84
2020/12/15 12:27:34;;;;;;;25.47;22.97;;;;;;;;;;4995344;28;20202;-84
2020/12/15 12:30:08;;;;;;;24.93;22.63;;;;;;;;;;4994716;28;20186;-84
2020/12/15 12:32:40;;;;;;;25.30;22.90;;;;;;;;;;4993653;28;20192;-84
2020/12/15 12:35:13;;;;;;;25.30;22.97;;;;;;;;;;4993187;28;20178;-84
2020/12/15 12:37:42;;;;;;;23.87;21.57;;;;;;;;;;4992786;28;20260;-84
2020/12/15 12:40:14;;;;;;;23.73;21.50;;;;;;;;;;4994217;28;20174;-84
2020/12/15 12:42:45;;;;;;;24.87;22.67;;;;;;;;;;4993352;28;20260;-84
2020/12/15 12:45:11;;;;;;;23.23;20.87;;;;;;;;;;4994720;28;20180;-84
2020/12/15 12:47:40;;;;;;;23.20;20.80;;;;;;;;;;4994451;28;20229;-84
2020/12/15 12:50:11;;;;;;;22.77;20.47;;;;;;;;;;4994391;28;20200;-84
2020/12/15 12:52:41;;;;;;;23.80;21.60;;;;;;;;;;4994356;28;20182;-85
2020/12/15 12:55:11;;;;;;;25.00;22.60;;;;;;;;;;4994545;28;20269;-84
2020/12/15 12:57:37;;;;;;;23.50;21.57;;;;;;;;;;4992672;28;20210;-85
2020/12/15 13:00:05;;;;;;;24.83;22.70;;;;;;;;;;4994665;28;20174;-84
2020/12/15 13:02:31;;;;;;;22.60;20.50;;;;;;;;;;4993872;28;20200;-84
2020/12/15 13:05:03;;;;;;;23.50;21.20;;;;;;;;;;4994315;28;20178;-84
2020/12/15 13:07:35;;;;;;;24.83;22.40;;;;;;;;;;4992917;28;20202;-84
2020/12/15 13:10:06;;;;;;;25.43;23.13;;;;;;;;;;4992811;28;20217;-85
2020/12/15 13:12:37;;;;;;;25.47;23.23;;;;;;;;;;4993224;28;20269;-85
2020/12/15 13:15:07;;;;;;;25.33;22.90;;;;;;;;;;4993070;28;20202;-85
2020/12/15 13:17:40;;;;;;;25.80;23.60;;;;;;;;;;5091739;23;20237;-87
2020/12/15 13:20:10;;;;;;;27.37;24.70;;;;;;;;;;4992340;28;20201;-87
2020/12/15 13:22:39;;;;;;;25.90;23.67;;;;;;;;;;4992289;28;20174;-87
2020/12/15 13:25:11;;;;;;;26.63;24.33;;;;;;;;;;4992616;28;20177;-87
2020/12/15 13:27:47;;;;;;;25.67;23.27;;;;;;;;;;4993455;28;20194;-87
2020/12/15 13:30:17;;;;;;;25.27;22.87;;;;;;;;;;4993132;28;20305;-87
2020/12/15 13:32:50;;;;;;;27.03;24.17;;;;;;;;;;4997246;28;20249;-87
2020/12/15 13:35:23;;;;;;;25.97;23.13;;;;;;;;;;4995920;28;20178;-87
2020/12/15 13:37:55;;;;;;;25.90;23.50;;;;;;;;;;4997233;28;20206;-87
2020/12/15 13:40:25;;;;;;;25.77;23.47;;;;;;;;;;4997232;28;20639;-87
2020/12/15 13:42:55;;;;;;;26.33;23.73;;;;;;;;;;4997281;28;20180;-87
2020/12/15 13:45:26;;;;;;;26.50;23.73;;;;;;;;;;4995760;28;20174;-87
2020/12/15 13:47:57;;;;;;;26.00;23.50;;;;;;;;;;4996841;28;20682;-87
2020/12/15 13:50:35;;;;;;;25.87;23.53;;;;;;;;;;4996918;28;20205;-87
2020/12/15 13:53:01;;;;;;;25.63;23.23;;;;;;;;;;4995591;28;20181;-87
2020/12/15 13:55:28;;;;;;;25.77;23.47;;;;;;;;;;4995976;28;20174;-87
2020/12/15 13:57:55;;;;;;;25.53;23.37;;;;;;;;;;4996866;28;20276;-87
2020/12/15 14:00:25;;;;;;;27.30;24.80;;;;;;;;;;4996919;28;20174;-87
2020/12/15 14:02:52;;;;;;;26.43;23.83;;;;;;;;;;4995692;28;20654;-88
2020/12/15 14:05:21;;;;;;;26.30;23.93;;;;;;;;;;4995406;28;20243;-87
2020/12/15 14:07:48;;;;;;;27.20;24.47;;;;;;;;;;4996830;28;20205;-87
2020/12/15 14:10:18;;;;;;;26.43;24.13;;;;;;;;;;4995550;28;20178;-87
2020/12/15 14:12:44;;;;;;;27.70;25.10;;;;;;;;;;4995102;28;20625;-87
2020/12/15 14:15:11;;;;;;;28.53;26.03;;;;;;;;;;4995099;28;20236;-87
2020/12/15 14:17:39;;;;;;;31.40;28.07;;;;;;;;;;4994975;28;20233;-87
2020/12/15 14:20:06;;;;;;;28.20;25.60;;;;;;;;;;4995107;28;20185;-87
2020/12/15 14:22:36;;;;;;;28.80;26.07;;;;;;;;;;4995009;28;20175;-87
2020/12/15 14:25:03;;;;;;;29.23;26.30;;;;;;;;;;4995864;28;20174;-87
2020/12/15 14:27:31;;;;;;;26.33;23.90;;;;;;;;;;4994764;28;20285;-88
2020/12/15 14:30:00;;;;;;;28.93;26.07;;;;;;;;;;4994839;28;20178;-87
2020/12/15 14:32:28;;;;;;;28.47;25.97;;;;;;;;;;4995648;28;20269;-87
2020/12/15 14:34:58;;;;;;;28.30;25.47;;;;;;;;;;4994892;28;20205;-88
2020/12/15 14:37:26;;;;;;;29.63;26.77;;;;;;;;;;4994875;28;20292;-87
2020/12/15 14:39:55;;;;;;;30.23;27.53;;;;;;;;;;4994533;28;20178;-87